メインページ
METAR-TAF:

METAR-TAF

空港 :

スポケーン国際空港

スポケーン, ワシントン, アメリカ合衆国

緯度: 47-37-17N, 経度: 117-31-40W, 海抜: 723m

現時点の気象観測

当レポートは49分前の17:53(UTC)に作成
南/南西の風 9kt
気温 16°C
湿度 68%
気圧 1017 hPa
視程: 16.1km
高度2500ftの雲は散在している
高度6000ftの曇り

METAR: KGEG 261753Z 21009KT 10SM SCT025 OVC060 16/10 A3004 RMK AO2 SLP167 T01610100 10172 20111 58001

時間: 11:42 (18:42 UTC)

予報

当レポートは1時間20分前の17:22(UTC)に作成
予報は26日の 18時(UTC)から 27日の 18時(UTC)まで有効
南西の風 11kt
視程: 10km
高度3000ftの雲は散在している
高度6000ftの千切れ雲あり
26日の 2100時(UTC)から
南西の風 12kt、最大17ktの突風を伴う
視程: 10km
高度6000ftの千切れ雲あり
27日の 0300時(UTC)から
南西の風 5kt
視程: 10km
高度7000ftの雲はほとんどない
高度25000ftの雲は散在している
27日の 1200時(UTC)から
の風 5kt
視程: 10km
高度25000ftの雲はほとんどない

TAF: KGEG 261722Z 2618/2718 22011KT P6SM SCT030 BKN060 FM262100 23012G17KT P6SM BKN060 FM270300 22005KT P6SM FEW070 SCT250 FM271200 09005KT P6SM FEW250

4,000以上の空港の気象観測と天気予報(METAR報とTAF報)

利用可能な観測所は地図上に黄色い丸と赤い丸で示す。

丸の上にカーソルを重ねると観測所名を参照できる。

次にクリックすると気象観測と天気予報を参照できる。

マップの切り替え:黒色「×」印の緑ボタンをクリックして拡大、「-」印の緑ボタンをクリックして縮小、緑色の三角印をクリックして隣りの地図に切り替え


METAR-TAF: